Clay, Michigan
Current Conditions -  °F | °C
As of 3:31 AM on Tuesday 21 Oct 2014 (Local Time) from KMTC Reporting Station
Drizzle Drizzle  
Wind Chill: 46°   Ceiling: 1800
Heat Index: 48°   Visibility: 10mi
Dew Point: 48°   Wind: 6mph
Humidity: 100%   Direction: 310°NW
Pressure: 29.86"   Gusts: NA
Location:  42.6418°N, 82.5677°W
Report Text: KMTC 210731Z AUTO 31005KT 10SM -DZ OVC018 09/09 A2986 RMK AO2
Loading
Personal Weather Stations






























Interactive Weather Map
Tropical Storm Tracking
New forecast layout! Learn more

10-Day Weather Forecast

Advertisements
Track Severe Weather on mobile